createdAt,value
2023-05-06T00:01:26.833Z,10.48
2023-05-06T00:03:55.035Z,8.50
2023-05-06T00:06:23.300Z,8.10
2023-05-06T00:08:51.436Z,8.10
2023-05-06T00:11:19.472Z,9.77
2023-05-06T00:13:47.465Z,11.20
2023-05-06T00:16:17.037Z,16.92
2023-05-06T00:18:45.368Z,8.25
2023-05-06T00:21:13.600Z,10.50
2023-05-06T00:23:41.603Z,10.77
2023-05-06T00:26:10.572Z,6.15
2023-05-06T00:28:38.527Z,9.80
2023-05-06T00:31:07.064Z,14.18
2023-05-06T00:33:36.717Z,8.55
2023-05-06T00:36:07.222Z,10.75
2023-05-06T00:38:35.727Z,10.70
2023-05-06T00:41:04.398Z,8.57
2023-05-06T00:43:32.498Z,13.18
2023-05-06T00:46:01.095Z,14.23
2023-05-06T00:48:29.662Z,13.15
2023-05-06T00:50:59.035Z,12.52
2023-05-06T00:53:27.148Z,7.20
2023-05-06T00:55:55.651Z,17.98
2023-05-06T00:58:49.025Z,10.15
2023-05-06T01:01:17.562Z,8.60
2023-05-06T01:03:45.944Z,19.33
2023-05-06T01:06:25.080Z,18.23
2023-05-06T01:09:02.020Z,12.02
2023-05-06T01:11:39.743Z,12.88
2023-05-06T01:14:17.498Z,14.50
2023-05-06T01:16:49.296Z,11.77
2023-05-06T01:19:35.851Z,11.00
2023-05-06T01:22:06.738Z,9.38
2023-05-06T01:24:40.091Z,13.88
2023-05-06T01:27:08.548Z,15.88
2023-05-06T01:29:38.163Z,13.20
2023-05-06T01:32:28.292Z,20.52
2023-05-06T01:35:04.712Z,8.30
2023-05-06T01:37:39.869Z,14.30
2023-05-06T01:40:10.732Z,11.15
2023-05-06T01:42:41.111Z,13.85
2023-05-06T01:45:11.214Z,18.45
2023-05-06T01:47:42.007Z,17.13
2023-05-06T01:50:10.954Z,11.63
2023-05-06T01:52:38.955Z,15.68
2023-05-06T01:55:09.951Z,14.40
2023-05-06T01:57:38.133Z,12.65
2023-05-06T02:00:07.445Z,15.73
2023-05-06T02:02:40.280Z,16.13
2023-05-06T02:05:09.679Z,16.33
2023-05-06T02:07:43.462Z,15.25
2023-05-06T02:10:13.443Z,20.58
2023-05-06T02:12:46.183Z,14.13
2023-05-06T02:15:14.236Z,18.08
2023-05-06T02:17:43.399Z,16.27
2023-05-06T02:20:11.802Z,13.77
2023-05-06T02:22:39.774Z,10.13
2023-05-06T02:25:09.414Z,16.20
2023-05-06T02:27:38.925Z,19.40
2023-05-06T02:30:08.417Z,17.27
2023-05-06T02:32:36.486Z,15.02
2023-05-06T02:35:04.965Z,14.82
2023-05-06T02:37:32.970Z,15.23
2023-05-06T02:40:02.972Z,14.93
2023-05-06T02:42:35.954Z,13.25
2023-05-06T02:45:06.265Z,10.68
2023-05-06T02:47:34.369Z,17.60
2023-05-06T02:50:02.366Z,16.90
2023-05-06T02:52:30.521Z,13.73
2023-05-06T02:54:58.589Z,19.05
2023-05-06T02:57:26.859Z,14.65
2023-05-06T02:59:54.857Z,19.20
2023-05-06T03:02:24.493Z,15.23
2023-05-06T03:04:52.948Z,15.82
2023-05-06T03:07:21.284Z,12.88
2023-05-06T03:09:49.502Z,11.90
2023-05-06T03:12:17.507Z,11.75
2023-05-06T03:14:45.520Z,18.55
2023-05-06T03:17:13.612Z,17.08
2023-05-06T03:19:43.021Z,16.23
2023-05-06T03:22:13.097Z,17.27
2023-05-06T03:25:10.207Z,17.02
2023-05-06T03:27:40.549Z,15.50
2023-05-06T03:30:16.611Z,12.13
2023-05-06T03:32:46.365Z,12.57
2023-05-06T03:35:19.991Z,14.05
2023-05-06T03:37:52.799Z,19.02
2023-05-06T03:40:22.897Z,16.17
2023-05-06T03:42:51.767Z,20.67
2023-05-06T03:45:21.096Z,15.93
2023-05-06T03:47:49.608Z,16.88
2023-05-06T03:50:20.800Z,14.90
2023-05-06T03:52:49.868Z,15.25
2023-05-06T03:55:18.057Z,16.63
2023-05-06T03:57:46.062Z,16.73
2023-05-06T04:00:15.792Z,16.38
2023-05-06T04:02:51.265Z,14.30
2023-05-06T04:05:26.480Z,15.35
2023-05-06T04:07:54.542Z,13.23
2023-05-06T04:10:22.771Z,12.93
2023-05-06T04:12:53.466Z,21.08
2023-05-06T04:15:29.130Z,13.52
2023-05-06T04:17:57.205Z,13.13
2023-05-06T04:20:26.654Z,14.38
2023-05-06T04:22:54.692Z,14.65
2023-05-06T04:25:22.870Z,15.73
2023-05-06T04:27:51.810Z,11.98
2023-05-06T04:30:20.997Z,11.40
2023-05-06T04:32:49.722Z,13.88
2023-05-06T04:35:18.358Z,14.57
2023-05-06T04:37:48.960Z,15.70
2023-05-06T04:40:25.957Z,18.35
2023-05-06T04:42:54.091Z,20.45
2023-05-06T04:45:26.121Z,16.83
2023-05-06T04:47:55.521Z,16.65
2023-05-06T04:50:23.615Z,14.95
2023-05-06T04:52:54.475Z,11.65
2023-05-06T04:55:22.450Z,17.55
2023-05-06T04:57:53.675Z,14.32
2023-05-06T05:00:22.293Z,20.83
2023-05-06T05:02:50.398Z,17.50
2023-05-06T05:05:19.355Z,17.42
2023-05-06T05:07:51.066Z,15.18
2023-05-06T05:10:20.943Z,14.75
2023-05-06T05:12:50.428Z,13.70
2023-05-06T05:15:18.485Z,13.63
2023-05-06T05:17:46.936Z,12.63
2023-05-06T05:20:15.753Z,17.77
2023-05-06T05:22:43.742Z,16.90
2023-05-06T05:25:12.115Z,16.88
2023-05-06T05:27:43.151Z,14.48
2023-05-06T05:30:11.992Z,14.80
2023-05-06T05:32:40.938Z,17.70
2023-05-06T05:35:10.772Z,12.70
2023-05-06T05:37:41.295Z,21.25
2023-05-06T05:40:11.039Z,14.85
2023-05-06T05:42:43.157Z,19.15
2023-05-06T05:45:21.232Z,12.70
2023-05-06T05:47:50.462Z,13.83
2023-05-06T05:50:19.640Z,13.98
2023-05-06T05:52:47.676Z,21.05
2023-05-06T05:55:16.333Z,15.55
2023-05-06T05:57:47.772Z,17.83
2023-05-06T06:00:17.313Z,19.45
2023-05-06T06:02:46.083Z,18.52
2023-05-06T06:05:17.416Z,13.82
2023-05-06T06:07:45.534Z,17.17
2023-05-06T06:10:15.452Z,15.55
2023-05-06T06:12:45.170Z,23.30
2023-05-06T06:15:19.170Z,19.80
2023-05-06T06:17:47.905Z,14.27
2023-05-06T06:20:16.027Z,15.95
2023-05-06T06:22:44.092Z,13.77
2023-05-06T06:25:12.674Z,16.65
2023-05-06T06:27:40.835Z,19.55
2023-05-06T06:30:10.170Z,21.42
2023-05-06T06:32:50.339Z,15.07
2023-05-06T06:35:19.901Z,16.25
2023-05-06T06:37:48.345Z,13.82
2023-05-06T06:40:16.924Z,17.67
2023-05-06T06:42:45.979Z,22.00
2023-05-06T06:45:34.508Z,11.90
2023-05-06T06:48:04.100Z,14.07
2023-05-06T06:50:32.111Z,13.57
2023-05-06T06:53:00.123Z,17.35
2023-05-06T06:55:28.209Z,10.20
2023-05-06T06:57:56.255Z,13.68
2023-05-06T07:00:24.611Z,13.40
2023-05-06T07:02:52.636Z,13.02
2023-05-06T07:05:22.042Z,16.30
2023-05-06T07:07:49.997Z,14.48
2023-05-06T07:10:17.931Z,11.35
2023-05-06T07:12:45.915Z,18.48
2023-05-06T07:15:14.033Z,15.55
2023-05-06T07:17:42.082Z,14.02
2023-05-06T07:20:11.300Z,13.95
2023-05-06T07:22:41.916Z,13.48
2023-05-06T07:25:10.557Z,11.02
2023-05-06T07:27:38.910Z,10.38
2023-05-06T07:30:08.154Z,7.65
2023-05-06T07:32:36.278Z,7.90
2023-05-06T07:35:05.745Z,13.63
2023-05-06T07:38:51.965Z,10.68
2023-05-06T07:41:21.387Z,11.30
2023-05-06T07:43:49.414Z,12.00
2023-05-06T07:46:17.665Z,9.85
2023-05-06T07:48:45.722Z,12.32
2023-05-06T07:51:13.777Z,16.15
2023-05-06T07:53:41.820Z,12.57
2023-05-06T07:56:09.845Z,10.60
2023-05-06T07:58:39.231Z,18.75
2023-05-06T08:01:07.291Z,7.05
2023-05-06T08:03:36.095Z,9.13
2023-05-06T08:06:04.472Z,7.75
2023-05-06T08:08:32.431Z,11.05
2023-05-06T08:11:00.946Z,7.88
2023-05-06T08:13:29.096Z,8.32
2023-05-06T08:15:58.583Z,13.63
2023-05-06T08:18:26.700Z,12.32
2023-05-06T08:20:54.892Z,7.25
2023-05-06T08:23:22.963Z,13.65
2023-05-06T08:25:51.002Z,12.85
2023-05-06T08:28:19.090Z,10.73
2023-05-06T08:30:48.543Z,7.47
2023-05-06T08:33:17.966Z,6.90
2023-05-06T08:35:46.042Z,11.70
2023-05-06T08:38:14.118Z,11.02
2023-05-06T08:40:44.828Z,10.70
2023-05-06T08:43:16.106Z,8.15
2023-05-06T08:45:44.211Z,9.70
2023-05-06T08:48:12.621Z,8.02
2023-05-06T08:50:44.756Z,12.98
2023-05-06T08:53:13.843Z,9.93
2023-05-06T08:55:42.660Z,16.70
2023-05-06T08:58:12.749Z,10.43
2023-05-06T09:00:41.001Z,11.07
2023-05-06T09:03:09.171Z,11.35
2023-05-06T09:05:37.347Z,10.90
2023-05-06T09:08:06.940Z,10.27
2023-05-06T09:10:43.946Z,9.43
2023-05-06T09:13:13.262Z,11.20
2023-05-06T09:15:42.080Z,11.75
2023-05-06T09:18:10.443Z,10.45
2023-05-06T09:20:42.036Z,11.48
2023-05-06T09:23:13.181Z,10.27
2023-05-06T09:25:41.217Z,9.57
2023-05-06T09:28:11.470Z,7.78
2023-05-06T09:30:40.502Z,9.50
2023-05-06T09:33:08.689Z,10.73
2023-05-06T09:35:39.137Z,9.93
2023-05-06T09:38:08.434Z,14.68
2023-05-06T09:40:38.948Z,10.23
2023-05-06T09:43:08.889Z,9.77
2023-05-06T09:45:37.237Z,9.88
2023-05-06T09:48:07.184Z,7.38
2023-05-06T09:50:35.391Z,5.70
2023-05-06T09:53:06.068Z,5.18
2023-05-06T09:55:34.742Z,6.32
2023-05-06T09:58:05.330Z,5.30
2023-05-06T10:00:33.770Z,8.70
2023-05-06T10:03:02.015Z,6.55
2023-05-06T10:05:31.540Z,6.93
2023-05-06T10:08:00.615Z,4.50
2023-05-06T10:10:29.567Z,8.00
2023-05-06T10:12:58.030Z,4.57
2023-05-06T10:15:27.826Z,12.45
2023-05-06T10:17:57.060Z,8.32
2023-05-06T10:20:26.543Z,7.35
2023-05-06T10:23:04.755Z,3.72
2023-05-06T10:25:37.266Z,5.57
2023-05-06T10:28:09.211Z,4.45
2023-05-06T10:30:45.712Z,7.15
2023-05-06T10:33:16.031Z,5.60
2023-05-06T10:35:51.104Z,6.00
2023-05-06T10:38:29.090Z,6.78
2023-05-06T10:40:59.966Z,5.45
2023-05-06T10:46:22.124Z,5.80
2023-05-06T10:49:18.692Z,5.15
2023-05-06T10:52:15.209Z,5.68
2023-05-06T10:54:50.855Z,4.45
2023-05-06T10:57:21.079Z,6.60
2023-05-06T10:59:50.139Z,9.57
2023-05-06T11:02:21.460Z,9.98
2023-05-06T11:04:53.829Z,10.77
2023-05-06T11:07:24.737Z,6.85
2023-05-06T11:12:48.994Z,4.25
2023-05-06T11:15:22.246Z,5.28
2023-05-06T11:17:51.798Z,4.55
2023-05-06T11:20:21.500Z,5.10
2023-05-06T11:22:49.601Z,5.05
2023-05-06T11:25:41.698Z,7.30
2023-05-06T11:28:11.436Z,5.72
2023-05-06T11:30:42.684Z,2.85
2023-05-06T11:33:19.522Z,7.00
2023-05-06T11:35:47.665Z,6.78
2023-05-06T11:38:15.681Z,4.82
2023-05-06T11:40:43.742Z,4.15
2023-05-06T11:43:12.968Z,4.40
2023-05-06T11:45:42.191Z,8.60
2023-05-06T11:48:13.979Z,3.63
2023-05-06T11:50:45.758Z,7.03
2023-05-06T11:53:16.006Z,8.93
2023-05-06T11:55:44.722Z,5.13
2023-05-06T11:59:02.693Z,5.10
2023-05-06T12:01:30.828Z,4.38
2023-05-06T12:04:00.368Z,4.70
2023-05-06T12:06:35.866Z,3.67
2023-05-06T12:09:06.361Z,3.65
2023-05-06T12:11:35.882Z,6.13
2023-05-06T12:14:06.681Z,4.20
2023-05-06T12:16:59.501Z,5.30
2023-05-06T12:19:30.184Z,3.65
2023-05-06T12:22:18.029Z,4.30
2023-05-06T12:24:46.532Z,4.85
2023-05-06T12:27:14.807Z,3.72
2023-05-06T12:29:53.910Z,2.67
2023-05-06T12:32:21.965Z,2.88
2023-05-06T12:34:51.428Z,2.95
2023-05-06T12:37:26.516Z,3.17
2023-05-06T12:39:57.718Z,6.15
2023-05-06T12:42:26.766Z,5.75
2023-05-06T12:44:55.021Z,2.53
2023-05-06T12:47:24.910Z,2.97
2023-05-06T12:49:55.821Z,3.90
2023-05-06T12:54:53.123Z,4.80
2023-05-06T12:57:21.469Z,3.20
2023-05-06T12:59:50.703Z,5.75
2023-05-06T13:02:18.941Z,4.03
2023-05-06T13:04:47.203Z,4.00
2023-05-06T13:07:16.666Z,1.48
2023-05-06T13:09:45.026Z,2.03
2023-05-06T13:12:13.099Z,3.85
2023-05-06T13:14:41.140Z,3.55
2023-05-06T13:17:09.400Z,1.38
2023-05-06T13:19:37.777Z,4.55
2023-05-06T13:22:05.775Z,1.85
2023-05-06T13:24:38.203Z,1.65
2023-05-06T13:27:06.361Z,2.58
2023-05-06T13:29:40.712Z,3.25
2023-05-06T13:32:09.343Z,2.55
2023-05-06T13:34:37.555Z,2.85
2023-05-06T13:37:05.816Z,3.22
2023-05-06T13:39:35.235Z,3.05
2023-05-06T13:42:06.655Z,1.88
2023-05-06T13:44:36.434Z,3.75
2023-05-06T13:47:04.841Z,1.23
2023-05-06T13:49:35.716Z,3.17
2023-05-06T13:52:05.211Z,1.40
2023-05-06T13:54:36.857Z,1.73
2023-05-06T13:57:04.993Z,1.75
2023-05-06T13:59:33.105Z,1.40
2023-05-06T14:02:01.702Z,2.40
2023-05-06T14:04:29.857Z,2.28
2023-05-06T14:06:57.879Z,6.13
2023-05-06T14:09:26.021Z,1.50
2023-05-06T14:11:55.473Z,1.33
2023-05-06T14:14:23.460Z,4.10
2023-05-06T14:16:53.425Z,1.23
2023-05-06T14:19:21.502Z,1.00
2023-05-06T14:21:50.947Z,2.45
2023-05-06T14:24:21.932Z,0.70
2023-05-06T14:26:50.177Z,1.10
2023-05-06T14:29:19.835Z,17.77
2023-05-06T14:31:50.204Z,1.88
2023-05-06T14:34:21.422Z,0.70
2023-05-06T14:36:49.710Z,1.52
2023-05-06T14:39:17.845Z,1.83
2023-05-06T14:41:46.116Z,3.65
2023-05-06T14:44:14.365Z,1.73
2023-05-06T14:46:44.079Z,1.92
2023-05-06T14:49:12.139Z,2.38
2023-05-06T14:51:43.831Z,3.33
2023-05-06T14:54:12.296Z,1.88
2023-05-06T14:56:41.368Z,2.70
2023-05-06T14:59:09.582Z,2.42
2023-05-06T15:01:39.169Z,2.10
2023-05-06T15:04:11.278Z,3.88
2023-05-06T15:06:39.542Z,4.38
2023-05-06T15:09:08.030Z,4.80
2023-05-06T15:11:36.163Z,4.28
2023-05-06T15:14:04.229Z,3.10
2023-05-06T15:16:36.786Z,2.97
2023-05-06T15:19:05.466Z,7.35
2023-05-06T15:21:35.261Z,5.15
2023-05-06T15:24:03.365Z,4.82
2023-05-06T15:26:31.482Z,2.05
2023-05-06T15:28:59.496Z,6.13
2023-05-06T15:31:27.573Z,4.18
2023-05-06T15:33:57.684Z,3.15
2023-05-06T15:36:27.654Z,3.90
2023-05-06T15:39:01.575Z,6.63
2023-05-06T15:41:31.857Z,2.08
2023-05-06T15:44:01.132Z,2.65
2023-05-06T15:46:29.753Z,2.15
2023-05-06T15:49:21.025Z,4.75
2023-05-06T15:51:46.878Z,3.22
2023-05-06T15:54:18.386Z,2.50
2023-05-06T15:56:47.570Z,2.30
2023-05-06T15:59:16.237Z,2.17
2023-05-06T16:05:09.701Z,5.60
2023-05-06T16:07:37.785Z,3.58
2023-05-06T16:10:08.987Z,3.42
2023-05-06T16:12:37.402Z,4.55
2023-05-06T16:15:06.112Z,2.72
2023-05-06T16:17:37.702Z,3.38
2023-05-06T16:20:09.108Z,3.00
2023-05-06T16:22:40.037Z,4.80
2023-05-06T16:27:38.063Z,2.75
2023-05-06T16:31:20.945Z,3.97
2023-05-06T16:33:49.289Z,5.63
2023-05-06T16:36:17.502Z,5.13
2023-05-06T16:38:48.023Z,1.77
2023-05-06T16:41:17.494Z,2.03
2023-05-06T16:43:45.572Z,3.92
2023-05-06T16:46:13.722Z,4.93
2023-05-06T16:49:40.275Z,4.03
2023-05-06T16:52:08.293Z,3.00
2023-05-06T16:54:36.368Z,5.07
2023-05-06T16:57:05.817Z,7.00
2023-05-06T17:00:03.266Z,3.97
2023-05-06T17:02:34.163Z,2.03
2023-05-06T17:07:30.226Z,2.95
2023-05-06T17:09:58.214Z,3.70
2023-05-06T17:12:27.670Z,2.90
2023-05-06T17:14:56.013Z,3.53
2023-05-06T17:17:28.572Z,4.32
2023-05-06T17:19:58.354Z,8.10
2023-05-06T17:22:26.692Z,4.50
2023-05-06T17:24:54.835Z,8.60
2023-05-06T17:27:23.248Z,8.20
2023-05-06T17:29:55.486Z,6.15
2023-05-06T17:32:26.185Z,6.32
2023-05-06T17:34:54.710Z,5.57
2023-05-06T17:37:48.536Z,7.38
2023-05-06T17:40:16.992Z,6.40
2023-05-06T17:42:45.602Z,6.18
2023-05-06T17:45:15.845Z,5.88
2023-05-06T17:47:46.579Z,6.22
2023-05-06T17:50:14.944Z,7.75
2023-05-06T17:52:43.074Z,7.53
2023-05-06T17:55:16.366Z,9.60
2023-05-06T17:57:52.582Z,9.07
2023-05-06T18:00:22.704Z,10.20
2023-05-06T18:02:50.891Z,7.10
2023-05-06T18:05:19.133Z,8.77
2023-05-06T18:07:47.998Z,8.25
2023-05-06T18:10:16.052Z,6.57
2023-05-06T18:12:45.414Z,7.68
2023-05-06T18:15:13.586Z,8.20
2023-05-06T18:17:42.974Z,8.68
2023-05-06T18:20:12.137Z,9.55
2023-05-06T18:22:40.302Z,6.70
2023-05-06T18:25:09.372Z,9.98
2023-05-06T18:27:37.589Z,9.95
2023-05-06T18:30:06.714Z,8.77
2023-05-06T18:32:35.042Z,6.60
2023-05-06T18:35:04.453Z,12.57
2023-05-06T18:37:33.024Z,6.87
2023-05-06T18:40:01.140Z,5.95
2023-05-06T18:42:29.259Z,9.23
2023-05-06T18:44:58.115Z,10.00
2023-05-06T18:47:26.505Z,8.20
2023-05-06T18:49:54.825Z,9.82
2023-05-06T18:52:24.288Z,10.77
2023-05-06T18:54:52.404Z,9.35
2023-05-06T18:57:20.606Z,8.77
2023-05-06T18:59:48.733Z,9.23
2023-05-06T19:02:17.083Z,7.18
2023-05-06T19:04:45.345Z,5.88
2023-05-06T19:07:16.059Z,8.20
2023-05-06T19:12:15.155Z,6.07
2023-05-06T19:14:43.513Z,7.25
2023-05-06T19:17:16.004Z,5.53
2023-05-06T19:19:55.479Z,9.52
2023-05-06T19:22:26.915Z,7.85
2023-05-06T19:24:56.511Z,6.78
2023-05-06T19:27:25.124Z,8.68
2023-05-06T19:29:53.474Z,7.72
2023-05-06T19:32:24.326Z,7.43
2023-05-06T19:34:52.390Z,8.38
2023-05-06T19:37:20.572Z,10.05
2023-05-06T19:39:49.619Z,7.78
2023-05-06T19:42:19.174Z,8.40
2023-05-06T19:44:48.300Z,10.10
2023-05-06T19:47:16.600Z,8.43
2023-05-06T19:49:44.652Z,11.60
2023-05-06T19:52:13.286Z,6.72
2023-05-06T19:54:41.460Z,7.28
2023-05-06T19:57:09.487Z,10.07
2023-05-06T19:59:39.467Z,5.10
2023-05-06T20:02:10.357Z,7.80
2023-05-06T20:04:38.524Z,9.93
2023-05-06T20:07:06.589Z,12.52
2023-05-06T20:09:34.729Z,10.52
2023-05-06T20:12:03.297Z,6.22
2023-05-06T20:14:31.796Z,9.35
2023-05-06T20:17:02.552Z,11.13
2023-05-06T20:19:31.275Z,9.48
2023-05-06T20:22:02.218Z,13.63
2023-05-06T20:26:59.190Z,9.48
2023-05-06T20:29:27.384Z,12.30
2023-05-06T20:31:58.780Z,10.02
2023-05-06T20:34:28.375Z,10.70
2023-05-06T20:36:56.457Z,11.23
2023-05-06T20:39:24.796Z,12.02
2023-05-06T20:41:52.909Z,10.55
2023-05-06T20:44:23.862Z,9.00
2023-05-06T20:49:20.135Z,13.02
2023-05-06T20:51:49.518Z,12.65
2023-05-06T20:54:18.065Z,12.88
2023-05-06T20:56:46.118Z,12.85
2023-05-06T20:59:30.982Z,11.63
2023-05-06T21:01:59.038Z,14.40
2023-05-06T21:04:27.244Z,15.82
2023-05-06T21:06:57.985Z,9.63
2023-05-06T21:09:27.898Z,12.02
2023-05-06T21:11:57.184Z,13.07
2023-05-06T21:14:27.359Z,11.48
2023-05-06T21:16:58.039Z,14.15
2023-05-06T21:19:26.196Z,14.73
2023-05-06T21:21:54.340Z,15.63
2023-05-06T21:24:23.689Z,14.30
2023-05-06T21:26:52.895Z,12.10
2023-05-06T21:29:21.568Z,10.93
2023-05-06T21:31:49.532Z,13.68
2023-05-06T21:34:17.493Z,14.63
2023-05-06T21:36:45.445Z,11.55
2023-05-06T21:39:16.013Z,12.75
2023-05-06T21:41:45.620Z,10.45
2023-05-06T21:44:13.600Z,11.02
2023-05-06T21:46:42.427Z,11.75
2023-05-06T21:49:10.501Z,10.68
2023-05-06T21:51:38.919Z,13.23
2023-05-06T21:54:07.010Z,14.35
2023-05-06T21:56:34.938Z,11.18
2023-05-06T21:59:04.950Z,9.65
2023-05-06T22:01:34.107Z,13.60
2023-05-06T22:04:02.208Z,14.73
2023-05-06T22:06:30.973Z,14.00
2023-05-06T22:08:59.099Z,14.18
2023-05-06T22:11:27.089Z,12.65
2023-05-06T22:13:55.276Z,15.80
2023-05-06T22:16:24.608Z,16.33
2023-05-06T22:18:53.094Z,14.60
2023-05-06T22:21:21.126Z,12.35
2023-05-06T22:23:55.282Z,11.18
2023-05-06T22:26:24.277Z,12.60
2023-05-06T22:28:52.317Z,15.77
2023-05-06T22:31:22.088Z,15.10
2023-05-06T22:33:54.500Z,15.07
2023-05-06T22:36:29.327Z,19.58
2023-05-06T22:38:57.519Z,15.52
2023-05-06T22:41:25.971Z,16.95
2023-05-06T22:43:53.895Z,19.48
2023-05-06T22:46:22.087Z,17.55
2023-05-06T22:48:51.704Z,20.20
2023-05-06T22:51:21.086Z,19.70
2023-05-06T22:53:51.827Z,18.67
2023-05-06T22:56:20.135Z,20.30
2023-05-06T22:58:48.090Z,14.38
2023-05-06T23:01:16.655Z,15.07
2023-05-06T23:03:44.818Z,16.67
2023-05-06T23:06:14.193Z,15.55
2023-05-06T23:08:42.161Z,15.57
2023-05-06T23:11:10.216Z,16.98
2023-05-06T23:13:38.166Z,12.82
2023-05-06T23:16:07.768Z,17.60
2023-05-06T23:18:35.896Z,15.93
2023-05-06T23:21:03.971Z,13.68
2023-05-06T23:23:33.548Z,13.55
2023-05-06T23:26:01.486Z,10.55
2023-05-06T23:28:29.522Z,11.35
2023-05-06T23:30:57.719Z,12.35
2023-05-06T23:33:25.825Z,11.60
2023-05-06T23:35:53.938Z,9.32
2023-05-06T23:38:21.978Z,11.93
2023-05-06T23:40:51.700Z,10.80
2023-05-06T23:43:19.670Z,11.48
2023-05-06T23:45:47.658Z,10.27
2023-05-06T23:48:15.710Z,8.98
2023-05-06T23:50:43.646Z,12.98
2023-05-06T23:53:11.857Z,10.15
2023-05-06T23:55:42.625Z,8.98
2023-05-06T23:58:11.996Z,9.70
